sensor_id;sensor_type;location;lat;lon;timestamp;P1;durP1;ratioP1;P2;durP2;ratioP2
16352;SDS011;8286;51.274;9.542;2023-02-21T00:01:12;11.67;;;6.07;;
16352;SDS011;8286;51.274;9.542;2023-02-21T00:03:56;10.87;;;5.97;;
16352;SDS011;8286;51.274;9.542;2023-02-21T00:06:42;12.43;;;6.50;;
16352;SDS011;8286;51.274;9.542;2023-02-21T00:09:26;13.30;;;7.37;;
16352;SDS011;8286;51.274;9.542;2023-02-21T00:12:11;12.20;;;6.70;;
16352;SDS011;8286;51.274;9.542;2023-02-21T00:14:55;13.10;;;7.00;;
16352;SDS011;8286;51.274;9.542;2023-02-21T00:17:39;12.37;;;7.17;;
16352;SDS011;8286;51.274;9.542;2023-02-21T00:20:23;15.93;;;7.80;;
16352;SDS011;8286;51.274;9.542;2023-02-21T00:23:07;12.23;;;6.33;;
16352;SDS011;8286;51.274;9.542;2023-02-21T00:25:51;12.57;;;6.67;;
16352;SDS011;8286;51.274;9.542;2023-02-21T00:28:37;13.83;;;6.47;;
16352;SDS011;8286;51.274;9.542;2023-02-21T00:31:21;14.37;;;7.33;;
16352;SDS011;8286;51.274;9.542;2023-02-21T00:34:05;14.10;;;7.73;;
16352;SDS011;8286;51.274;9.542;2023-02-21T00:36:49;14.70;;;7.33;;
16352;SDS011;8286;51.274;9.542;2023-02-21T00:39:35;14.20;;;7.33;;
16352;SDS011;8286;51.274;9.542;2023-02-21T00:42:18;12.53;;;6.93;;
16352;SDS011;8286;51.274;9.542;2023-02-21T00:45:04;14.77;;;8.23;;
16352;SDS011;8286;51.274;9.542;2023-02-21T00:47:48;14.00;;;7.10;;
16352;SDS011;8286;51.274;9.542;2023-02-21T00:50:32;18.20;;;7.97;;
16352;SDS011;8286;51.274;9.542;2023-02-21T00:53:16;12.93;;;7.17;;
16352;SDS011;8286;51.274;9.542;2023-02-21T00:56:00;15.27;;;8.03;;
16352;SDS011;8286;51.274;9.542;2023-02-21T00:58:44;16.43;;;7.07;;
16352;SDS011;8286;51.274;9.542;2023-02-21T01:01:29;15.70;;;8.00;;
16352;SDS011;8286;51.274;9.542;2023-02-21T01:04:13;15.70;;;7.80;;
16352;SDS011;8286;51.274;9.542;2023-02-21T01:06:57;11.90;;;7.17;;
16352;SDS011;8286;51.274;9.542;2023-02-21T01:09:41;16.03;;;8.80;;
16352;SDS011;8286;51.274;9.542;2023-02-21T01:12:25;16.33;;;8.67;;
16352;SDS011;8286;51.274;9.542;2023-02-21T01:15:09;21.93;;;9.40;;
16352;SDS011;8286;51.274;9.542;2023-02-21T01:17:54;18.10;;;8.23;;
16352;SDS011;8286;51.274;9.542;2023-02-21T01:20:38;16.23;;;9.30;;
16352;SDS011;8286;51.274;9.542;2023-02-21T01:23:22;15.83;;;8.20;;
16352;SDS011;8286;51.274;9.542;2023-02-21T01:26:08;18.17;;;8.73;;
16352;SDS011;8286;51.274;9.542;2023-02-21T01:28:52;19.67;;;8.70;;
16352;SDS011;8286;51.274;9.542;2023-02-21T01:31:36;16.83;;;8.80;;
16352;SDS011;8286;51.274;9.542;2023-02-21T01:34:21;22.47;;;11.00;;
16352;SDS011;8286;51.274;9.542;2023-02-21T01:37:05;18.10;;;8.67;;
16352;SDS011;8286;51.274;9.542;2023-02-21T01:39:49;21.77;;;9.77;;
16352;SDS011;8286;51.274;9.542;2023-02-21T01:42:33;21.87;;;10.20;;
16352;SDS011;8286;51.274;9.542;2023-02-21T01:45:37;21.10;;;10.07;;
16352;SDS011;8286;51.274;9.542;2023-02-21T01:48:24;19.77;;;9.13;;
16352;SDS011;8286;51.274;9.542;2023-02-21T01:51:11;22.90;;;11.23;;
16352;SDS011;8286;51.274;9.542;2023-02-21T01:53:57;20.43;;;10.13;;
16352;SDS011;8286;51.274;9.542;2023-02-21T01:56:41;22.27;;;9.70;;
16352;SDS011;8286;51.274;9.542;2023-02-21T01:59:25;23.33;;;11.60;;
16352;SDS011;8286;51.274;9.542;2023-02-21T02:02:11;24.90;;;11.37;;
16352;SDS011;8286;51.274;9.542;2023-02-21T02:04:57;20.30;;;9.33;;
16352;SDS011;8286;51.274;9.542;2023-02-21T02:07:44;21.50;;;10.07;;
16352;SDS011;8286;51.274;9.542;2023-02-21T02:10:28;21.07;;;9.63;;
16352;SDS011;8286;51.274;9.542;2023-02-21T02:13:16;23.17;;;11.23;;
16352;SDS011;8286;51.274;9.542;2023-02-21T02:15:52;22.93;;;10.90;;
16352;SDS011;8286;51.274;9.542;2023-02-21T02:18:26;24.47;;;11.93;;
16352;SDS011;8286;51.274;9.542;2023-02-21T02:21:08;25.23;;;11.47;;
16352;SDS011;8286;51.274;9.542;2023-02-21T02:33:05;24.73;;;11.20;;
16352;SDS011;8286;51.274;9.542;2023-02-21T02:35:52;24.20;;;11.10;;
16352;SDS011;8286;51.274;9.542;2023-02-21T02:38:22;23.07;;;10.53;;
16352;SDS011;8286;51.274;9.542;2023-02-21T02:40:54;22.60;;;11.67;;
16352;SDS011;8286;51.274;9.542;2023-02-21T02:43:24;25.63;;;11.80;;
16352;SDS011;8286;51.274;9.542;2023-02-21T02:45:53;21.67;;;11.17;;
16352;SDS011;8286;51.274;9.542;2023-02-21T02:48:24;26.77;;;12.10;;
16352;SDS011;8286;51.274;9.542;2023-02-21T02:50:55;25.23;;;12.03;;
16352;SDS011;8286;51.274;9.542;2023-02-21T02:53:24;19.87;;;10.90;;
16352;SDS011;8286;51.274;9.542;2023-02-21T02:55:52;21.43;;;11.00;;
16352;SDS011;8286;51.274;9.542;2023-02-21T02:58:21;27.43;;;10.53;;
16352;SDS011;8286;51.274;9.542;2023-02-21T03:00:52;21.43;;;10.83;;
16352;SDS011;8286;51.274;9.542;2023-02-21T03:06:18;22.80;;;11.23;;
16352;SDS011;8286;51.274;9.542;2023-02-21T03:08:50;23.03;;;10.57;;
16352;SDS011;8286;51.274;9.542;2023-02-21T03:11:20;21.10;;;10.73;;
16352;SDS011;8286;51.274;9.542;2023-02-21T03:13:47;26.83;;;12.57;;
16352;SDS011;8286;51.274;9.542;2023-02-21T03:16:17;21.67;;;10.63;;
16352;SDS011;8286;51.274;9.542;2023-02-21T03:18:49;21.80;;;9.43;;
16352;SDS011;8286;51.274;9.542;2023-02-21T03:21:19;21.80;;;10.80;;
16352;SDS011;8286;51.274;9.542;2023-02-21T03:23:49;27.37;;;11.73;;
16352;SDS011;8286;51.274;9.542;2023-02-21T03:26:17;24.07;;;10.47;;
16352;SDS011;8286;51.274;9.542;2023-02-21T03:28:44;22.47;;;10.70;;
16352;SDS011;8286;51.274;9.542;2023-02-21T03:31:11;23.00;;;11.03;;
16352;SDS011;8286;51.274;9.542;2023-02-21T03:33:39;22.13;;;10.43;;
16352;SDS011;8286;51.274;9.542;2023-02-21T03:36:06;22.97;;;9.57;;
16352;SDS011;8286;51.274;9.542;2023-02-21T03:38:35;21.93;;;10.60;;
16352;SDS011;8286;51.274;9.542;2023-02-21T03:41:02;21.03;;;9.73;;
16352;SDS011;8286;51.274;9.542;2023-02-21T03:43:28;25.30;;;11.33;;
16352;SDS011;8286;51.274;9.542;2023-02-21T03:45:55;20.47;;;9.97;;
16352;SDS011;8286;51.274;9.542;2023-02-21T03:48:21;22.03;;;10.33;;
16352;SDS011;8286;51.274;9.542;2023-02-21T03:50:48;21.53;;;10.37;;
16352;SDS011;8286;51.274;9.542;2023-02-21T03:53:14;21.43;;;10.43;;
16352;SDS011;8286;51.274;9.542;2023-02-21T03:55:42;26.07;;;10.37;;
16352;SDS011;8286;51.274;9.542;2023-02-21T03:58:09;21.83;;;9.97;;
16352;SDS011;8286;51.274;9.542;2023-02-21T04:00:35;22.40;;;11.70;;
16352;SDS011;8286;51.274;9.542;2023-02-21T04:03:02;20.80;;;9.30;;
16352;SDS011;8286;51.274;9.542;2023-02-21T04:05:28;23.33;;;10.63;;
16352;SDS011;8286;51.274;9.542;2023-02-21T04:07:55;22.23;;;11.10;;
16352;SDS011;8286;51.274;9.542;2023-02-21T04:10:21;24.17;;;11.07;;
16352;SDS011;8286;51.274;9.542;2023-02-21T04:12:49;28.70;;;12.10;;
16352;SDS011;8286;51.274;9.542;2023-02-21T04:15:15;28.23;;;11.93;;
16352;SDS011;8286;51.274;9.542;2023-02-21T04:17:42;26.87;;;12.43;;
16352;SDS011;8286;51.274;9.542;2023-02-21T04:20:09;30.23;;;13.47;;
16352;SDS011;8286;51.274;9.542;2023-02-21T04:22:35;25.33;;;11.53;;
16352;SDS011;8286;51.274;9.542;2023-02-21T04:25:02;29.03;;;12.77;;
16352;SDS011;8286;51.274;9.542;2023-02-21T04:27:28;30.23;;;13.90;;
16352;SDS011;8286;51.274;9.542;2023-02-21T04:29:56;29.33;;;13.30;;
16352;SDS011;8286;51.274;9.542;2023-02-21T04:32:23;32.23;;;13.33;;
16352;SDS011;8286;51.274;9.542;2023-02-21T04:34:49;33.33;;;13.10;;
16352;SDS011;8286;51.274;9.542;2023-02-21T04:37:16;29.57;;;14.20;;
16352;SDS011;8286;51.274;9.542;2023-02-21T04:39:42;28.83;;;14.37;;
16352;SDS011;8286;51.274;9.542;2023-02-21T04:42:09;31.30;;;14.93;;
16352;SDS011;8286;51.274;9.542;2023-02-21T04:44:35;30.37;;;13.87;;
16352;SDS011;8286;51.274;9.542;2023-02-21T04:47:03;29.90;;;14.53;;
16352;SDS011;8286;51.274;9.542;2023-02-21T04:49:30;28.93;;;13.63;;
16352;SDS011;8286;51.274;9.542;2023-02-21T04:51:57;34.53;;;14.47;;
16352;SDS011;8286;51.274;9.542;2023-02-21T04:54:23;31.83;;;13.80;;
16352;SDS011;8286;51.274;9.542;2023-02-21T04:56:50;30.07;;;12.70;;
16352;SDS011;8286;51.274;9.542;2023-02-21T04:59:16;31.63;;;13.53;;
16352;SDS011;8286;51.274;9.542;2023-02-21T05:01:43;35.40;;;14.37;;
16352;SDS011;8286;51.274;9.542;2023-02-21T05:04:11;30.90;;;14.43;;
16352;SDS011;8286;51.274;9.542;2023-02-21T05:06:37;32.73;;;14.27;;
16352;SDS011;8286;51.274;9.542;2023-02-21T05:09:07;34.13;;;14.93;;
16352;SDS011;8286;51.274;9.542;2023-02-21T05:11:33;26.03;;;12.37;;
16352;SDS011;8286;51.274;9.542;2023-02-21T05:14:00;27.93;;;12.47;;
16352;SDS011;8286;51.274;9.542;2023-02-21T05:16:26;33.87;;;14.50;;
16352;SDS011;8286;51.274;9.542;2023-02-21T05:18:53;36.33;;;15.27;;
16352;SDS011;8286;51.274;9.542;2023-02-21T05:21:21;30.70;;;14.30;;
16352;SDS011;8286;51.274;9.542;2023-02-21T05:23:47;31.17;;;13.73;;
16352;SDS011;8286;51.274;9.542;2023-02-21T05:26:21;31.43;;;13.43;;
16352;SDS011;8286;51.274;9.542;2023-02-21T05:28:49;27.63;;;12.70;;
16352;SDS011;8286;51.274;9.542;2023-02-21T05:31:15;28.83;;;13.07;;
16352;SDS011;8286;51.274;9.542;2023-02-21T05:33:42;30.37;;;13.67;;
16352;SDS011;8286;51.274;9.542;2023-02-21T05:36:08;31.07;;;12.93;;
16352;SDS011;8286;51.274;9.542;2023-02-21T05:38:44;30.23;;;13.17;;
16352;SDS011;8286;51.274;9.542;2023-02-21T05:41:11;31.00;;;13.37;;
16352;SDS011;8286;51.274;9.542;2023-02-21T05:43:38;30.57;;;13.97;;
16352;SDS011;8286;51.274;9.542;2023-02-21T05:46:04;31.33;;;13.23;;
16352;SDS011;8286;51.274;9.542;2023-02-21T05:48:31;34.17;;;13.60;;
16352;SDS011;8286;51.274;9.542;2023-02-21T05:50:57;27.30;;;11.83;;
16352;SDS011;8286;51.274;9.542;2023-02-21T05:53:23;31.23;;;13.73;;
16352;SDS011;8286;51.274;9.542;2023-02-21T05:55:51;29.30;;;12.40;;
16352;SDS011;8286;51.274;9.542;2023-02-21T05:58:18;31.93;;;13.03;;
16352;SDS011;8286;51.274;9.542;2023-02-21T06:00:44;27.70;;;12.53;;
16352;SDS011;8286;51.274;9.542;2023-02-21T06:03:10;30.80;;;13.07;;
16352;SDS011;8286;51.274;9.542;2023-02-21T06:05:37;35.93;;;14.00;;
16352;SDS011;8286;51.274;9.542;2023-02-21T06:08:03;27.87;;;12.90;;
16352;SDS011;8286;51.274;9.542;2023-02-21T06:10:30;29.40;;;11.87;;
16352;SDS011;8286;51.274;9.542;2023-02-21T06:12:58;29.57;;;13.07;;
16352;SDS011;8286;51.274;9.542;2023-02-21T06:15:24;27.03;;;11.93;;
16352;SDS011;8286;51.274;9.542;2023-02-21T06:17:51;28.43;;;12.77;;
16352;SDS011;8286;51.274;9.542;2023-02-21T06:20:17;26.77;;;11.93;;
16352;SDS011;8286;51.274;9.542;2023-02-21T06:22:44;26.07;;;12.97;;
16352;SDS011;8286;51.274;9.542;2023-02-21T06:25:11;29.60;;;12.80;;
16352;SDS011;8286;51.274;9.542;2023-02-21T06:27:37;26.73;;;12.10;;
16352;SDS011;8286;51.274;9.542;2023-02-21T06:30:06;28.27;;;13.03;;
16352;SDS011;8286;51.274;9.542;2023-02-21T06:32:33;28.97;;;13.60;;
16352;SDS011;8286;51.274;9.542;2023-02-21T06:34:59;26.90;;;12.57;;
16352;SDS011;8286;51.274;9.542;2023-02-21T06:37:26;25.83;;;11.93;;
16352;SDS011;8286;51.274;9.542;2023-02-21T06:39:53;26.33;;;11.33;;
16352;SDS011;8286;51.274;9.542;2023-02-21T06:42:19;27.17;;;13.87;;
16352;SDS011;8286;51.274;9.542;2023-02-21T06:44:47;32.23;;;13.20;;
16352;SDS011;8286;51.274;9.542;2023-02-21T06:47:15;25.57;;;11.73;;
16352;SDS011;8286;51.274;9.542;2023-02-21T06:49:42;28.40;;;13.23;;
16352;SDS011;8286;51.274;9.542;2023-02-21T06:52:09;25.67;;;12.70;;
16352;SDS011;8286;51.274;9.542;2023-02-21T06:54:36;28.03;;;12.60;;
16352;SDS011;8286;51.274;9.542;2023-02-21T06:57:03;33.40;;;13.73;;
16352;SDS011;8286;51.274;9.542;2023-02-21T06:59:29;26.50;;;11.57;;
16352;SDS011;8286;51.274;9.542;2023-02-21T07:01:56;31.93;;;13.30;;
16352;SDS011;8286;51.274;9.542;2023-02-21T07:04:24;26.77;;;13.97;;
16352;SDS011;8286;51.274;9.542;2023-02-21T07:06:51;26.17;;;12.70;;
16352;SDS011;8286;51.274;9.542;2023-02-21T07:09:17;24.63;;;11.90;;
16352;SDS011;8286;51.274;9.542;2023-02-21T07:11:44;28.97;;;14.53;;
16352;SDS011;8286;51.274;9.542;2023-02-21T07:14:11;27.30;;;13.17;;
16352;SDS011;8286;51.274;9.542;2023-02-21T07:16:37;32.53;;;13.77;;
16352;SDS011;8286;51.274;9.542;2023-02-21T07:19:04;27.90;;;13.00;;
16352;SDS011;8286;51.274;9.542;2023-02-21T07:21:32;32.13;;;14.87;;
16352;SDS011;8286;51.274;9.542;2023-02-21T07:23:58;32.23;;;14.27;;
16352;SDS011;8286;51.274;9.542;2023-02-21T07:26:25;31.63;;;13.57;;
16352;SDS011;8286;51.274;9.542;2023-02-21T07:28:51;31.63;;;13.20;;
16352;SDS011;8286;51.274;9.542;2023-02-21T07:31:18;28.73;;;14.27;;
16352;SDS011;8286;51.274;9.542;2023-02-21T07:33:44;30.63;;;13.73;;
16352;SDS011;8286;51.274;9.542;2023-02-21T07:36:11;29.47;;;13.00;;
16352;SDS011;8286;51.274;9.542;2023-02-21T07:38:39;29.17;;;13.90;;
16352;SDS011;8286;51.274;9.542;2023-02-21T07:41:05;29.43;;;13.50;;
16352;SDS011;8286;51.274;9.542;2023-02-21T07:43:32;27.37;;;14.40;;
16352;SDS011;8286;51.274;9.542;2023-02-21T07:45:58;30.70;;;14.27;;
16352;SDS011;8286;51.274;9.542;2023-02-21T07:48:25;31.83;;;14.27;;
16352;SDS011;8286;51.274;9.542;2023-02-21T07:50:51;33.53;;;14.60;;
16352;SDS011;8286;51.274;9.542;2023-02-21T07:53:18;29.37;;;13.50;;
16352;SDS011;8286;51.274;9.542;2023-02-21T07:55:46;35.97;;;15.03;;
16352;SDS011;8286;51.274;9.542;2023-02-21T07:58:12;33.20;;;13.80;;
16352;SDS011;8286;51.274;9.542;2023-02-21T08:00:39;30.00;;;13.73;;
16352;SDS011;8286;51.274;9.542;2023-02-21T08:03:05;31.17;;;13.47;;
16352;SDS011;8286;51.274;9.542;2023-02-21T08:05:33;27.10;;;13.30;;
16352;SDS011;8286;51.274;9.542;2023-02-21T08:07:59;30.30;;;13.93;;
16352;SDS011;8286;51.274;9.542;2023-02-21T08:10:26;29.37;;;12.90;;
16352;SDS011;8286;51.274;9.542;2023-02-21T08:12:54;28.23;;;13.57;;
16352;SDS011;8286;51.274;9.542;2023-02-21T08:15:21;28.57;;;14.50;;
16352;SDS011;8286;51.274;9.542;2023-02-21T08:17:48;29.07;;;12.77;;
16352;SDS011;8286;51.274;9.542;2023-02-21T08:20:15;26.87;;;12.97;;
16352;SDS011;8286;51.274;9.542;2023-02-21T08:22:41;25.70;;;13.00;;
16352;SDS011;8286;51.274;9.542;2023-02-21T08:25:08;29.80;;;12.90;;
16352;SDS011;8286;51.274;9.542;2023-02-21T08:27:37;26.13;;;12.40;;
16352;SDS011;8286;51.274;9.542;2023-02-21T08:30:05;25.77;;;12.90;;
16352;SDS011;8286;51.274;9.542;2023-02-21T08:32:33;30.40;;;12.93;;
16352;SDS011;8286;51.274;9.542;2023-02-21T08:35:00;25.60;;;12.67;;
16352;SDS011;8286;51.274;9.542;2023-02-21T08:37:27;30.47;;;14.07;;
16352;SDS011;8286;51.274;9.542;2023-02-21T08:39:57;31.27;;;14.83;;
16352;SDS011;8286;51.274;9.542;2023-02-21T08:42:24;30.13;;;14.10;;
16352;SDS011;8286;51.274;9.542;2023-02-21T08:44:50;31.57;;;14.50;;
16352;SDS011;8286;51.274;9.542;2023-02-21T08:47:18;30.07;;;14.43;;
16352;SDS011;8286;51.274;9.542;2023-02-21T08:49:45;33.87;;;14.93;;
16352;SDS011;8286;51.274;9.542;2023-02-21T08:52:12;34.23;;;15.03;;
16352;SDS011;8286;51.274;9.542;2023-02-21T08:54:40;33.03;;;15.03;;
16352;SDS011;8286;51.274;9.542;2023-02-21T08:57:07;33.97;;;15.80;;
16352;SDS011;8286;51.274;9.542;2023-02-21T08:59:33;39.27;;;16.27;;
16352;SDS011;8286;51.274;9.542;2023-02-21T09:02:01;31.10;;;13.77;;
16352;SDS011;8286;51.274;9.542;2023-02-21T09:04:29;32.53;;;14.87;;
16352;SDS011;8286;51.274;9.542;2023-02-21T09:06:56;35.33;;;16.00;;
16352;SDS011;8286;51.274;9.542;2023-02-21T09:09:22;33.53;;;14.10;;
16352;SDS011;8286;51.274;9.542;2023-02-21T09:11:49;36.60;;;13.97;;
16352;SDS011;8286;51.274;9.542;2023-02-21T09:14:15;27.70;;;13.23;;
16352;SDS011;8286;51.274;9.542;2023-02-21T09:16:42;29.50;;;15.00;;
16352;SDS011;8286;51.274;9.542;2023-02-21T09:19:09;31.73;;;14.33;;
16352;SDS011;8286;51.274;9.542;2023-02-21T09:21:43;31.50;;;15.33;;
16352;SDS011;8286;51.274;9.542;2023-02-21T09:24:11;31.27;;;14.30;;
16352;SDS011;8286;51.274;9.542;2023-02-21T09:26:38;33.30;;;14.10;;
16352;SDS011;8286;51.274;9.542;2023-02-21T09:29:05;32.53;;;14.30;;
16352;SDS011;8286;51.274;9.542;2023-02-21T09:31:32;33.67;;;13.77;;
16352;SDS011;8286;51.274;9.542;2023-02-21T09:34:02;28.60;;;13.00;;
16352;SDS011;8286;51.274;9.542;2023-02-21T09:36:28;30.53;;;13.83;;
16352;SDS011;8286;51.274;9.542;2023-02-21T09:38:56;32.30;;;14.50;;
16352;SDS011;8286;51.274;9.542;2023-02-21T09:41:22;33.10;;;15.07;;
16352;SDS011;8286;51.274;9.542;2023-02-21T09:43:49;28.30;;;13.30;;
16352;SDS011;8286;51.274;9.542;2023-02-21T09:46:18;26.93;;;12.87;;
16352;SDS011;8286;51.274;9.542;2023-02-21T09:48:46;30.37;;;13.90;;
16352;SDS011;8286;51.274;9.542;2023-02-21T09:51:13;38.70;;;16.13;;
16352;SDS011;8286;51.274;9.542;2023-02-21T09:53:41;37.23;;;14.40;;
16352;SDS011;8286;51.274;9.542;2023-02-21T09:56:11;30.00;;;15.00;;
16352;SDS011;8286;51.274;9.542;2023-02-21T09:58:43;28.70;;;13.27;;
16352;SDS011;8286;51.274;9.542;2023-02-21T10:01:14;33.63;;;14.10;;
16352;SDS011;8286;51.274;9.542;2023-02-21T10:03:48;30.40;;;14.37;;
16352;SDS011;8286;51.274;9.542;2023-02-21T10:06:21;28.50;;;13.97;;
16352;SDS011;8286;51.274;9.542;2023-02-21T10:08:53;29.13;;;13.80;;
16352;SDS011;8286;51.274;9.542;2023-02-21T10:11:27;28.57;;;13.90;;
16352;SDS011;8286;51.274;9.542;2023-02-21T10:14:01;38.40;;;14.60;;
16352;SDS011;8286;51.274;9.542;2023-02-21T10:16:32;27.50;;;13.27;;
16352;SDS011;8286;51.274;9.542;2023-02-21T10:19:03;29.63;;;12.33;;
16352;SDS011;8286;51.274;9.542;2023-02-21T10:21:34;24.13;;;12.47;;
16352;SDS011;8286;51.274;9.542;2023-02-21T10:24:01;26.50;;;12.93;;
16352;SDS011;8286;51.274;9.542;2023-02-21T10:26:33;24.83;;;12.50;;
16352;SDS011;8286;51.274;9.542;2023-02-21T10:29:06;29.90;;;12.67;;
16352;SDS011;8286;51.274;9.542;2023-02-21T10:31:43;31.20;;;12.13;;
16352;SDS011;8286;51.274;9.542;2023-02-21T10:34:15;27.80;;;11.90;;
16352;SDS011;8286;51.274;9.542;2023-02-21T10:36:44;27.47;;;11.53;;
16352;SDS011;8286;51.274;9.542;2023-02-21T10:39:12;22.37;;;11.13;;
16352;SDS011;8286;51.274;9.542;2023-02-21T10:41:43;24.50;;;11.80;;
16352;SDS011;8286;51.274;9.542;2023-02-21T10:44:11;24.37;;;10.97;;
16352;SDS011;8286;51.274;9.542;2023-02-21T10:46:41;34.57;;;11.30;;
16352;SDS011;8286;51.274;9.542;2023-02-21T10:49:16;19.67;;;9.30;;
16352;SDS011;8286;51.274;9.542;2023-02-21T10:51:47;20.60;;;9.27;;
16352;SDS011;8286;51.274;9.542;2023-02-21T10:54:29;21.50;;;10.03;;
16352;SDS011;8286;51.274;9.542;2023-02-21T10:56:56;17.30;;;9.60;;
16352;SDS011;8286;51.274;9.542;2023-02-21T10:59:25;17.90;;;10.17;;
16352;SDS011;8286;51.274;9.542;2023-02-21T11:01:53;18.17;;;9.17;;
16352;SDS011;8286;51.274;9.542;2023-02-21T11:04:27;14.17;;;8.13;;
16352;SDS011;8286;51.274;9.542;2023-02-21T11:06:56;18.83;;;9.43;;
16352;SDS011;8286;51.274;9.542;2023-02-21T11:09:30;15.00;;;8.43;;
16352;SDS011;8286;51.274;9.542;2023-02-21T11:12:01;17.93;;;9.10;;
16352;SDS011;8286;51.274;9.542;2023-02-21T11:14:30;15.00;;;7.77;;
16352;SDS011;8286;51.274;9.542;2023-02-21T11:17:04;16.60;;;8.03;;
16352;SDS011;8286;51.274;9.542;2023-02-21T11:19:46;17.10;;;8.80;;
16352;SDS011;8286;51.274;9.542;2023-02-21T11:22:14;17.57;;;8.57;;
16352;SDS011;8286;51.274;9.542;2023-02-21T11:24:46;19.53;;;9.07;;
16352;SDS011;8286;51.274;9.542;2023-02-21T11:27:18;14.70;;;7.57;;
16352;SDS011;8286;51.274;9.542;2023-02-21T11:29:46;15.50;;;7.97;;
16352;SDS011;8286;51.274;9.542;2023-02-21T11:32:18;12.83;;;7.90;;
16352;SDS011;8286;51.274;9.542;2023-02-21T11:34:50;15.50;;;8.07;;
16352;SDS011;8286;51.274;9.542;2023-02-21T11:37:17;20.07;;;8.87;;
16352;SDS011;8286;51.274;9.542;2023-02-21T11:39:48;17.27;;;8.83;;
16352;SDS011;8286;51.274;9.542;2023-02-21T11:42:24;14.07;;;8.13;;
16352;SDS011;8286;51.274;9.542;2023-02-21T11:45:04;15.03;;;7.83;;
16352;SDS011;8286;51.274;9.542;2023-02-21T11:47:37;18.47;;;9.40;;
16352;SDS011;8286;51.274;9.542;2023-02-21T11:50:09;18.87;;;8.63;;
16352;SDS011;8286;51.274;9.542;2023-02-21T11:52:37;14.77;;;7.90;;
16352;SDS011;8286;51.274;9.542;2023-02-21T11:55:10;19.73;;;8.77;;
16352;SDS011;8286;51.274;9.542;2023-02-21T11:57:41;20.67;;;9.80;;
16352;SDS011;8286;51.274;9.542;2023-02-21T12:00:12;19.27;;;9.10;;
16352;SDS011;8286;51.274;9.542;2023-02-21T12:02:51;18.60;;;8.40;;
16352;SDS011;8286;51.274;9.542;2023-02-21T12:05:29;20.43;;;8.00;;
16352;SDS011;8286;51.274;9.542;2023-02-21T12:08:09;16.53;;;8.33;;
16352;SDS011;8286;51.274;9.542;2023-02-21T12:11:00;18.13;;;9.07;;
16352;SDS011;8286;51.274;9.542;2023-02-21T12:13:44;18.60;;;8.40;;
16352;SDS011;8286;51.274;9.542;2023-02-21T12:16:18;15.90;;;8.27;;
16352;SDS011;8286;51.274;9.542;2023-02-21T12:18:55;14.40;;;7.90;;
16352;SDS011;8286;51.274;9.542;2023-02-21T12:21:42;17.63;;;8.53;;
16352;SDS011;8286;51.274;9.542;2023-02-21T12:24:21;18.63;;;9.13;;
16352;SDS011;8286;51.274;9.542;2023-02-21T12:26:54;13.17;;;8.20;;
16352;SDS011;8286;51.274;9.542;2023-02-21T12:29:37;19.63;;;8.10;;
16352;SDS011;8286;51.274;9.542;2023-02-21T12:32:19;16.23;;;7.87;;
16352;SDS011;8286;51.274;9.542;2023-02-21T12:34:59;17.67;;;9.10;;
16352;SDS011;8286;51.274;9.542;2023-02-21T12:37:30;14.03;;;7.77;;
16352;SDS011;8286;51.274;9.542;2023-02-21T12:40:06;13.87;;;7.07;;
16352;SDS011;8286;51.274;9.542;2023-02-21T12:42:44;15.53;;;8.20;;
16352;SDS011;8286;51.274;9.542;2023-02-21T12:45:27;22.33;;;8.60;;
16352;SDS011;8286;51.274;9.542;2023-02-21T12:48:03;16.20;;;7.93;;
16352;SDS011;8286;51.274;9.542;2023-02-21T12:50:32;19.60;;;8.33;;
16352;SDS011;8286;51.274;9.542;2023-02-21T12:53:02;14.83;;;8.07;;
16352;SDS011;8286;51.274;9.542;2023-02-21T12:55:41;16.53;;;8.10;;
16352;SDS011;8286;51.274;9.542;2023-02-21T12:58:11;17.17;;;8.53;;
16352;SDS011;8286;51.274;9.542;2023-02-21T13:00:44;14.93;;;7.60;;
16352;SDS011;8286;51.274;9.542;2023-02-21T13:03:21;15.60;;;7.07;;
16352;SDS011;8286;51.274;9.542;2023-02-21T13:06:00;15.07;;;6.83;;
16352;SDS011;8286;51.274;9.542;2023-02-21T13:08:31;15.10;;;7.03;;
16352;SDS011;8286;51.274;9.542;2023-02-21T13:11:00;16.10;;;7.97;;
16352;SDS011;8286;51.274;9.542;2023-02-21T13:13:31;14.10;;;8.73;;
16352;SDS011;8286;51.274;9.542;2023-02-21T13:16:01;11.83;;;6.90;;
16352;SDS011;8286;51.274;9.542;2023-02-21T13:18:29;15.43;;;7.50;;
16352;SDS011;8286;51.274;9.542;2023-02-21T13:20:59;13.80;;;8.23;;
16352;SDS011;8286;51.274;9.542;2023-02-21T13:26:38;15.97;;;8.10;;
16352;SDS011;8286;51.274;9.542;2023-02-21T13:29:12;15.23;;;7.20;;
16352;SDS011;8286;51.274;9.542;2023-02-21T13:31:44;13.60;;;6.87;;
16352;SDS011;8286;51.274;9.542;2023-02-21T13:34:12;12.57;;;7.10;;
16352;SDS011;8286;51.274;9.542;2023-02-21T13:36:51;13.37;;;7.80;;
16352;SDS011;8286;51.274;9.542;2023-02-21T13:39:18;12.87;;;7.17;;
16352;SDS011;8286;51.274;9.542;2023-02-21T13:41:48;13.70;;;7.40;;
16352;SDS011;8286;51.274;9.542;2023-02-21T13:44:16;12.20;;;7.67;;
16352;SDS011;8286;51.274;9.542;2023-02-21T13:47:08;15.77;;;8.10;;
16352;SDS011;8286;51.274;9.542;2023-02-21T13:52:33;15.50;;;8.07;;
16352;SDS011;8286;51.274;9.542;2023-02-21T13:55:25;15.70;;;7.63;;
16352;SDS011;8286;51.274;9.542;2023-02-21T14:01:15;17.53;;;7.87;;
16352;SDS011;8286;51.274;9.542;2023-02-21T14:03:49;12.30;;;7.40;;
16352;SDS011;8286;51.274;9.542;2023-02-21T14:09:05;16.03;;;7.20;;
16352;SDS011;8286;51.274;9.542;2023-02-21T14:11:37;16.63;;;8.07;;
16352;SDS011;8286;51.274;9.542;2023-02-21T14:14:06;16.43;;;9.37;;
16352;SDS011;8286;51.274;9.542;2023-02-21T14:16:45;19.30;;;9.30;;
16352;SDS011;8286;51.274;9.542;2023-02-21T14:19:18;17.47;;;9.10;;
16352;SDS011;8286;51.274;9.542;2023-02-21T14:21:48;18.50;;;9.83;;
16352;SDS011;8286;51.274;9.542;2023-02-21T14:24:18;24.03;;;10.13;;
16352;SDS011;8286;51.274;9.542;2023-02-21T14:26:48;23.33;;;10.87;;
16352;SDS011;8286;51.274;9.542;2023-02-21T14:29:29;21.43;;;10.47;;
16352;SDS011;8286;51.274;9.542;2023-02-21T14:34:50;23.47;;;10.77;;
16352;SDS011;8286;51.274;9.542;2023-02-21T14:37:21;21.57;;;11.27;;
16352;SDS011;8286;51.274;9.542;2023-02-21T14:39:50;19.30;;;10.20;;
16352;SDS011;8286;51.274;9.542;2023-02-21T14:42:30;22.97;;;10.70;;
16352;SDS011;8286;51.274;9.542;2023-02-21T14:45:21;22.17;;;10.70;;
16352;SDS011;8286;51.274;9.542;2023-02-21T14:47:56;23.97;;;10.93;;
16352;SDS011;8286;51.274;9.542;2023-02-21T14:50:33;23.17;;;11.03;;
16352;SDS011;8286;51.274;9.542;2023-02-21T14:56:00;22.47;;;10.80;;
16352;SDS011;8286;51.274;9.542;2023-02-21T14:58:36;17.70;;;9.43;;
16352;SDS011;8286;51.274;9.542;2023-02-21T15:01:20;21.57;;;10.17;;
16352;SDS011;8286;51.274;9.542;2023-02-21T15:03:59;21.80;;;11.30;;
16352;SDS011;8286;51.274;9.542;2023-02-21T15:06:30;21.87;;;10.33;;
16352;SDS011;8286;51.274;9.542;2023-02-21T15:08:57;21.10;;;10.27;;
16352;SDS011;8286;51.274;9.542;2023-02-21T15:11:24;20.10;;;10.70;;
16352;SDS011;8286;51.274;9.542;2023-02-21T15:14:11;23.10;;;10.60;;
16352;SDS011;8286;51.274;9.542;2023-02-21T15:16:46;19.93;;;9.77;;
16352;SDS011;8286;51.274;9.542;2023-02-21T15:19:19;23.17;;;11.83;;
16352;SDS011;8286;51.274;9.542;2023-02-21T15:24:58;21.67;;;10.40;;
16352;SDS011;8286;51.274;9.542;2023-02-21T15:27:26;24.80;;;10.77;;
16352;SDS011;8286;51.274;9.542;2023-02-21T15:30:02;24.43;;;11.10;;
16352;SDS011;8286;51.274;9.542;2023-02-21T15:32:30;22.50;;;10.27;;
16352;SDS011;8286;51.274;9.542;2023-02-21T15:34:56;17.03;;;9.50;;
16352;SDS011;8286;51.274;9.542;2023-02-21T15:37:25;20.80;;;10.97;;
16352;SDS011;8286;51.274;9.542;2023-02-21T15:39:54;19.90;;;10.30;;